createdAt,value
2023-03-04T00:00:22.888Z,1.04
2023-03-04T00:01:22.986Z,1.04
2023-03-04T00:02:23.154Z,1.04
2023-03-04T00:03:23.286Z,1.04
2023-03-04T00:04:23.339Z,1.04
2023-03-04T00:05:23.504Z,1.04
2023-03-04T00:06:23.601Z,1.04
2023-03-04T00:07:23.695Z,1.04
2023-03-04T00:08:23.798Z,1.04
2023-03-04T00:09:23.899Z,1.04
2023-03-04T00:10:24.003Z,1.04
2023-03-04T00:11:24.117Z,1.04
2023-03-04T00:12:24.205Z,1.04
2023-03-04T00:13:24.355Z,1.04
2023-03-04T00:14:24.481Z,1.04
2023-03-04T00:15:24.608Z,1.04
2023-03-04T00:16:24.750Z,1.04
2023-03-04T00:17:24.837Z,1.04
2023-03-04T00:18:24.974Z,1.04
2023-03-04T00:19:25.115Z,1.04
2023-03-04T00:20:25.219Z,1.04
2023-03-04T00:21:25.313Z,1.04
2023-03-04T00:22:25.424Z,1.04
2023-03-04T00:23:25.569Z,1.04
2023-03-04T00:24:25.761Z,1.04
2023-03-04T00:25:25.835Z,1.04
2023-03-04T00:26:25.970Z,1.04
2023-03-04T00:27:26.085Z,1.04
2023-03-04T00:28:26.223Z,1.04
2023-03-04T00:29:26.371Z,1.04
2023-03-04T00:30:26.529Z,1.04
2023-03-04T00:31:26.733Z,1.04
2023-03-04T00:32:26.833Z,1.04
2023-03-04T00:33:26.887Z,1.04
2023-03-04T00:34:26.994Z,1.04
2023-03-04T00:35:27.162Z,1.04
2023-03-04T00:36:27.238Z,1.04
2023-03-04T00:37:27.388Z,1.04
2023-03-04T00:38:27.541Z,1.04
2023-03-04T00:39:27.689Z,1.04
2023-03-04T00:40:27.839Z,1.04
2023-03-04T00:41:27.988Z,1.04
2023-03-04T00:42:28.144Z,1.04
2023-03-04T00:43:28.244Z,1.04
2023-03-04T00:44:28.392Z,1.04
2023-03-04T00:45:28.558Z,1.04
2023-03-04T00:46:28.658Z,1.04
2023-03-04T00:47:28.800Z,1.04
2023-03-04T00:48:28.904Z,1.04
2023-03-04T00:49:29.057Z,1.04
2023-03-04T00:50:29.213Z,1.04
2023-03-04T00:51:29.367Z,1.04
2023-03-04T00:52:29.507Z,1.04
2023-03-04T00:53:29.620Z,1.04
2023-03-04T00:54:29.758Z,1.04
2023-03-04T00:55:29.888Z,1.04
2023-03-04T00:56:30.020Z,1.04
2023-03-04T00:57:30.114Z,1.04
2023-03-04T00:58:30.214Z,1.04
2023-03-04T00:59:30.320Z,1.04
2023-03-04T01:00:30.470Z,1.04
2023-03-04T01:01:30.634Z,1.04
2023-03-04T01:02:30.859Z,1.04
2023-03-04T01:03:30.877Z,1.04
2023-03-04T01:04:30.976Z,1.04
2023-03-04T01:05:31.124Z,1.04
2023-03-04T01:06:31.277Z,1.04
2023-03-04T01:07:31.388Z,1.04
2023-03-04T01:08:31.479Z,1.04
2023-03-04T01:09:31.645Z,1.04
2023-03-04T01:10:31.783Z,1.04
2023-03-04T01:11:31.888Z,1.04
2023-03-04T01:12:31.984Z,1.04
2023-03-04T01:13:32.133Z,1.04
2023-03-04T01:14:32.297Z,1.04
2023-03-04T01:15:32.467Z,1.04
2023-03-04T01:16:32.554Z,1.04
2023-03-04T01:17:32.673Z,1.04
2023-03-04T01:18:32.754Z,1.04
2023-03-04T01:19:32.844Z,1.04
2023-03-04T01:20:33.003Z,1.04
2023-03-04T01:21:33.146Z,1.04
2023-03-04T01:22:33.299Z,1.04
2023-03-04T01:23:33.410Z,1.04
2023-03-04T01:24:33.509Z,1.04
2023-03-04T01:25:33.651Z,1.04
2023-03-04T01:26:33.756Z,1.04
2023-03-04T01:27:33.859Z,1.04
2023-03-04T01:28:34.008Z,1.04
2023-03-04T01:29:34.108Z,1.04
2023-03-04T01:30:34.288Z,1.04
2023-03-04T01:31:34.372Z,1.04
2023-03-04T01:32:34.578Z,1.04
2023-03-04T01:33:34.661Z,1.04
2023-03-04T01:34:34.829Z,1.04
2023-03-04T01:35:34.965Z,1.04
2023-03-04T01:36:34.968Z,1.04
2023-03-04T01:37:35.133Z,1.04
2023-03-04T01:38:35.282Z,1.04
2023-03-04T01:39:35.375Z,1.04
2023-03-04T01:40:35.479Z,1.04
2023-03-04T01:41:35.640Z,1.04
2023-03-04T01:42:35.780Z,1.04
2023-03-04T01:43:35.884Z,1.04
2023-03-04T01:44:35.981Z,1.04
2023-03-04T01:45:37.238Z,1.04
2023-03-04T01:46:36.322Z,1.04
2023-03-04T01:47:36.387Z,1.04
2023-03-04T01:48:36.537Z,1.04
2023-03-04T01:49:36.644Z,1.04
2023-03-04T01:50:36.740Z,1.04
2023-03-04T01:51:36.890Z,1.04
2023-03-04T01:52:37.041Z,1.04
2023-03-04T01:53:37.200Z,1.04
2023-03-04T01:54:37.294Z,1.04
2023-03-04T01:55:37.446Z,1.04
2023-03-04T01:56:37.602Z,1.04
2023-03-04T01:57:37.750Z,1.04
2023-03-04T01:58:37.849Z,1.04
2023-03-04T01:59:37.985Z,1.04
2023-03-04T02:00:38.113Z,1.04
2023-03-04T02:01:38.306Z,1.04
2023-03-04T02:02:38.370Z,1.04
2023-03-04T02:03:38.458Z,1.04
2023-03-04T02:04:38.691Z,1.04
2023-03-04T02:05:38.714Z,1.04
2023-03-04T02:06:38.863Z,1.04
2023-03-04T02:07:38.969Z,1.04
2023-03-04T02:08:39.117Z,1.04
2023-03-04T02:09:39.217Z,1.04
2023-03-04T02:10:39.383Z,1.04
2023-03-04T02:11:39.532Z,1.04
2023-03-04T02:12:39.640Z,1.04
2023-03-04T02:13:39.724Z,1.04
2023-03-04T02:14:39.877Z,1.04
2023-03-04T02:15:40.033Z,1.04
2023-03-04T02:16:40.181Z,1.04
2023-03-04T02:17:40.331Z,1.04
2023-03-04T02:18:40.480Z,1.04
2023-03-04T02:19:40.586Z,1.04
2023-03-04T02:20:40.738Z,1.04
2023-03-04T02:21:40.840Z,1.04
2023-03-04T02:22:40.939Z,1.04
2023-03-04T02:23:41.048Z,1.04
2023-03-04T02:24:41.144Z,1.04
2023-03-04T02:25:41.242Z,1.04
2023-03-04T02:26:41.428Z,1.04
2023-03-04T02:27:41.550Z,1.04
2023-03-04T02:28:41.693Z,1.04
2023-03-04T02:29:41.797Z,1.04
2023-03-04T02:30:41.950Z,1.04
2023-03-04T02:31:42.066Z,1.04
2023-03-04T02:32:42.150Z,1.04
2023-03-04T02:33:42.303Z,1.04
2023-03-04T02:34:43.432Z,1.04
2023-03-04T02:35:42.582Z,1.04
2023-03-04T02:36:42.709Z,1.04
2023-03-04T02:37:42.863Z,1.04
2023-03-04T02:38:43.020Z,1.04
2023-03-04T02:39:43.120Z,1.04
2023-03-04T02:40:43.271Z,1.04
2023-03-04T02:41:44.572Z,1.04
2023-03-04T02:42:43.567Z,1.04
2023-03-04T02:43:43.689Z,1.04
2023-03-04T02:44:43.889Z,1.04
2023-03-04T02:45:44.026Z,1.04
2023-03-04T02:46:44.302Z,1.04
2023-03-04T02:47:44.341Z,1.04
2023-03-04T02:48:44.559Z,1.04
2023-03-04T02:49:44.628Z,1.04
2023-03-04T02:50:44.729Z,1.04
2023-03-04T02:51:44.833Z,1.04
2023-03-04T02:52:44.930Z,1.04
2023-03-04T02:53:45.044Z,1.04
2023-03-04T02:54:45.188Z,1.04
2023-03-04T02:55:45.338Z,1.04
2023-03-04T02:56:45.439Z,1.04
2023-03-04T02:57:45.592Z,1.04
2023-03-04T02:58:45.695Z,1.04
2023-03-04T02:59:45.844Z,1.04
2023-03-04T03:00:45.994Z,1.04
2023-03-04T03:01:46.206Z,1.04
2023-03-04T03:02:46.326Z,1.04
2023-03-04T03:03:46.350Z,1.04
2023-03-04T03:04:46.452Z,1.04
2023-03-04T03:05:46.601Z,1.04
2023-03-04T03:06:46.752Z,1.04
2023-03-04T03:07:46.864Z,1.04
2023-03-04T03:08:47.005Z,1.04
2023-03-04T03:09:47.160Z,1.04
2023-03-04T03:10:47.315Z,1.04
2023-03-04T03:11:47.467Z,1.04
2023-03-04T03:12:47.616Z,1.04
2023-03-04T03:13:47.717Z,1.04
2023-03-04T03:14:47.870Z,1.04
2023-03-04T03:15:49.981Z,1.04
2023-03-04T03:16:48.119Z,1.04
2023-03-04T03:17:48.221Z,1.04
2023-03-04T03:18:48.326Z,1.04
2023-03-04T03:19:48.420Z,1.04
2023-03-04T03:20:48.576Z,1.04
2023-03-04T03:21:48.726Z,1.04
2023-03-04T03:22:48.828Z,1.04
2023-03-04T03:23:48.980Z,1.04
2023-03-04T03:24:49.084Z,1.04
2023-03-04T03:25:49.178Z,1.04
2023-03-04T03:26:49.336Z,1.04
2023-03-04T03:27:49.432Z,1.04
2023-03-04T03:28:49.555Z,1.04
2023-03-04T03:29:49.685Z,1.04
2023-03-04T03:30:49.783Z,1.04
2023-03-04T03:31:49.944Z,1.04
2023-03-04T03:32:50.090Z,1.04
2023-03-04T03:33:50.242Z,1.04
2023-03-04T03:34:50.391Z,1.04
2023-03-04T03:35:50.548Z,1.04
2023-03-04T03:36:50.644Z,1.04
2023-03-04T03:37:50.744Z,1.04
2023-03-04T03:38:50.902Z,1.04
2023-03-04T03:39:51.045Z,1.04
2023-03-04T03:40:51.151Z,1.04
2023-03-04T03:41:51.253Z,1.04
2023-03-04T03:42:51.401Z,1.04
2023-03-04T03:43:51.551Z,1.04
2023-03-04T03:44:51.657Z,1.04
2023-03-04T03:45:51.957Z,1.04
2023-03-04T03:46:51.952Z,1.04
2023-03-04T03:47:52.064Z,1.04
2023-03-04T03:48:52.212Z,1.04
2023-03-04T03:49:52.362Z,1.04
2023-03-04T03:50:52.460Z,1.04
2023-03-04T03:51:52.563Z,1.04
2023-03-04T03:52:52.715Z,1.04
2023-03-04T03:53:52.880Z,1.04
2023-03-04T03:54:53.022Z,1.04
2023-03-04T03:55:53.173Z,1.04
2023-03-04T03:56:53.271Z,1.04
2023-03-04T03:57:53.425Z,1.04
2023-03-04T03:58:53.573Z,1.04
2023-03-04T03:59:53.681Z,1.04
2023-03-04T04:00:54.961Z,1.04
2023-03-04T04:01:54.039Z,1.04
2023-03-04T04:02:54.143Z,1.04
2023-03-04T04:03:54.189Z,1.04
2023-03-04T04:04:54.280Z,1.04
2023-03-04T04:05:54.390Z,1.04
2023-03-04T04:06:54.534Z,1.04
2023-03-04T04:07:54.637Z,1.04
2023-03-04T04:08:54.790Z,1.04
2023-03-04T04:09:54.940Z,1.04
2023-03-04T04:10:55.039Z,1.04
2023-03-04T04:11:55.143Z,1.04
2023-03-04T04:12:55.297Z,1.04
2023-03-04T04:13:55.398Z,1.04
2023-03-04T04:14:55.555Z,1.04
2023-03-04T04:15:55.702Z,1.04
2023-03-04T04:16:55.858Z,1.04
2023-03-04T04:17:56.005Z,1.04
2023-03-04T04:18:56.153Z,1.04
2023-03-04T04:19:56.307Z,1.04
2023-03-04T04:20:56.410Z,1.04
2023-03-04T04:21:56.556Z,1.04
2023-03-04T04:22:56.673Z,1.04
2023-03-04T04:23:56.813Z,1.04
2023-03-04T04:24:56.914Z,1.04
2023-03-04T04:25:57.019Z,1.04
2023-03-04T04:26:57.171Z,1.04
2023-03-04T04:27:57.324Z,1.04
2023-03-04T04:28:57.422Z,1.04
2023-03-04T04:29:57.572Z,1.04
2023-03-04T04:30:57.770Z,1.04
2023-03-04T04:31:57.853Z,1.04
2023-03-04T04:32:57.978Z,1.04
2023-03-04T04:33:58.120Z,1.04
2023-03-04T04:34:58.224Z,1.04
2023-03-04T04:35:58.362Z,1.04
2023-03-04T04:36:58.476Z,1.04
2023-03-04T04:37:58.586Z,1.04
2023-03-04T04:38:58.687Z,1.04
2023-03-04T04:39:58.826Z,1.04
2023-03-04T04:40:58.979Z,1.04
2023-03-04T04:41:59.130Z,1.04
2023-03-04T04:42:59.292Z,1.04
2023-03-04T04:43:59.437Z,1.04
2023-03-04T04:44:59.534Z,1.04
2023-03-04T04:45:59.727Z,1.04
2023-03-04T04:46:59.842Z,1.04
2023-03-04T04:47:59.940Z,1.04
2023-03-04T04:49:00.114Z,1.04
2023-03-04T04:50:00.238Z,1.04
2023-03-04T04:51:00.993Z,1.04
2023-03-04T04:52:00.511Z,1.04
2023-03-04T04:53:00.694Z,1.04
2023-03-04T04:54:00.800Z,1.04
2023-03-04T04:55:01.644Z,1.04
2023-03-04T04:56:01.107Z,1.04
2023-03-04T04:57:01.785Z,1.04
2023-03-04T04:58:01.355Z,1.04
2023-03-04T04:59:01.527Z,1.04
2023-03-04T05:00:01.672Z,1.04
2023-03-04T05:01:01.796Z,1.04
2023-03-04T05:02:01.914Z,1.04
2023-03-04T05:03:02.135Z,1.04
2023-03-04T05:04:02.221Z,1.04
2023-03-04T05:05:02.323Z,1.04
2023-03-04T05:06:02.441Z,1.04
2023-03-04T05:07:02.568Z,1.04
2023-03-04T05:08:02.722Z,1.04
2023-03-04T05:09:02.876Z,1.04
2023-03-04T05:10:03.048Z,1.04
2023-03-04T05:11:03.179Z,1.04
2023-03-04T05:12:03.328Z,1.04
2023-03-04T05:13:03.432Z,1.04
2023-03-04T05:14:03.584Z,1.04
2023-03-04T05:15:03.738Z,1.04
2023-03-04T05:16:03.904Z,1.04
2023-03-04T05:17:03.987Z,1.04
2023-03-04T05:18:04.089Z,2
2023-03-04T05:19:04.199Z,2
2023-03-04T05:20:04.343Z,2
2023-03-04T05:21:04.499Z,2
2023-03-04T05:22:04.647Z,2
2023-03-04T05:23:04.797Z,3.04
2023-03-04T05:24:04.901Z,3.04
2023-03-04T05:25:05.050Z,3.04
2023-03-04T05:26:05.152Z,4
2023-03-04T05:27:05.301Z,5.04
2023-03-04T05:28:05.455Z,5.04
2023-03-04T05:29:05.614Z,6
2023-03-04T05:30:05.758Z,7.04
2023-03-04T05:31:05.955Z,8
2023-03-04T05:32:06.113Z,10
2023-03-04T05:33:06.161Z,11.04
2023-03-04T05:34:06.276Z,12
2023-03-04T05:35:06.414Z,13.04
2023-03-04T05:36:06.520Z,15.04
2023-03-04T05:37:06.664Z,20
2023-03-04T05:38:06.814Z,24
2023-03-04T05:39:06.967Z,28
2023-03-04T05:40:07.076Z,29.04
2023-03-04T05:41:07.227Z,32
2023-03-04T05:42:07.376Z,35.04
2023-03-04T05:43:07.524Z,45.04
2023-03-04T05:44:07.633Z,57.04
2023-03-04T05:45:07.778Z,61.04
2023-03-04T05:46:08.024Z,66
2023-03-04T05:47:08.046Z,83.04
2023-03-04T05:48:08.186Z,91.04
2023-03-04T05:49:08.334Z,100
2023-03-04T05:50:08.437Z,100
2023-03-04T05:51:08.591Z,104
2023-03-04T05:52:08.748Z,119.04
2023-03-04T05:53:08.887Z,122
2023-03-04T05:54:09.040Z,140
2023-03-04T05:55:09.160Z,158
2023-03-04T05:56:09.302Z,173.12
2023-03-04T05:57:09.408Z,197.12
2023-03-04T05:58:09.552Z,199.04
2023-03-04T05:59:09.719Z,209.12
2023-03-04T06:00:09.853Z,236
2023-03-04T06:01:09.985Z,258.08
2023-03-04T06:02:10.118Z,263.04
2023-03-04T06:03:10.211Z,264
2023-03-04T06:04:10.465Z,275.04
2023-03-04T06:05:10.510Z,291.04
2023-03-04T06:06:10.642Z,325.12
2023-03-04T06:07:10.764Z,328
2023-03-04T06:08:10.875Z,341.12
2023-03-04T06:09:11.023Z,359.04
2023-03-04T06:10:11.171Z,383.04
2023-03-04T06:11:11.267Z,414.08
2023-03-04T06:12:11.364Z,407.04
2023-03-04T06:13:11.525Z,423.04
2023-03-04T06:14:11.684Z,435.2
2023-03-04T06:15:11.773Z,475.2
2023-03-04T06:16:11.957Z,517.12
2023-03-04T06:17:12.055Z,523.2
2023-03-04T06:18:12.178Z,542.08
2023-03-04T06:19:12.324Z,550.08
2023-03-04T06:20:12.478Z,580.16
2023-03-04T06:21:12.576Z,587.2
2023-03-04T06:22:12.741Z,626.24
2023-03-04T06:23:12.835Z,643.2
2023-03-04T06:24:12.934Z,693.12
2023-03-04T06:25:13.038Z,695.04
2023-03-04T06:26:13.136Z,711.04
2023-03-04T06:27:13.241Z,724.48
2023-03-04T06:28:13.388Z,757.12
2023-03-04T06:29:13.559Z,781.44
2023-03-04T06:30:13.644Z,813.44
2023-03-04T06:31:13.874Z,830.08
2023-03-04T06:32:13.951Z,890.24
2023-03-04T06:33:14.045Z,901.12
2023-03-04T06:34:14.206Z,931.2
2023-03-04T06:35:14.336Z,968.32
2023-03-04T06:36:14.456Z,991.36
2023-03-04T06:37:14.622Z,991.36
2023-03-04T06:38:14.702Z,1040
2023-03-04T06:39:14.807Z,1072
2023-03-04T06:40:14.959Z,1103.36
2023-03-04T06:41:15.061Z,1099.52
2023-03-04T06:42:15.161Z,1104
2023-03-04T06:43:15.317Z,1176.32
2023-03-04T06:44:15.414Z,1235.2
2023-03-04T06:45:15.528Z,1252.48
2023-03-04T06:46:15.703Z,1252.48
2023-03-04T06:47:15.811Z,1369.6
2023-03-04T06:48:15.973Z,1361.92
2023-03-04T06:49:16.140Z,1373.44
2023-03-04T06:50:16.268Z,1420.8
2023-03-04T06:51:16.374Z,1496.32
2023-03-04T06:52:16.523Z,1551.36
2023-03-04T06:53:16.622Z,1583.36
2023-03-04T06:54:16.732Z,1592.32
2023-03-04T06:55:16.890Z,1666.56
2023-03-04T06:56:17.027Z,1672.96
2023-03-04T06:57:17.127Z,1854.72
2023-03-04T06:58:17.232Z,1794.56
2023-03-04T06:59:17.383Z,1820.16
2023-03-04T07:00:17.541Z,1818.88
2023-03-04T07:01:17.693Z,1900.8
2023-03-04T07:02:17.844Z,2009.6
2023-03-04T07:03:17.934Z,2112
2023-03-04T07:04:18.118Z,2049.28
2023-03-04T07:05:18.198Z,2081.28
2023-03-04T07:06:18.294Z,2114.56
2023-03-04T07:07:18.443Z,2056.96
2023-03-04T07:08:20.056Z,2183.68
2023-03-04T07:09:18.653Z,2204.16
2023-03-04T07:10:18.795Z,2220.8
2023-03-04T07:11:18.900Z,2338.56
2023-03-04T07:12:19.019Z,2319.36
2023-03-04T07:13:19.151Z,2131.2
2023-03-04T07:14:19.260Z,2237.44
2023-03-04T07:15:19.408Z,2256.64
2023-03-04T07:16:19.530Z,2341.12
2023-03-04T07:17:19.661Z,2240
2023-03-04T07:18:19.811Z,2342.4
2023-03-04T07:19:19.962Z,2327.04
2023-03-04T07:20:20.120Z,2216.96
2023-03-04T07:21:20.262Z,2385.92
2023-03-04T07:22:20.375Z,2547.2
2023-03-04T07:23:20.466Z,2437.12
2023-03-04T07:24:20.620Z,2465.28
2023-03-04T07:25:20.769Z,2547.2
2023-03-04T07:26:20.953Z,2364.16
2023-03-04T07:27:21.073Z,2415.36
2023-03-04T07:28:21.173Z,2574.08
2023-03-04T07:29:21.276Z,2483.2
2023-03-04T07:30:21.427Z,2561.28
2023-03-04T07:31:21.598Z,2767.36
2023-03-04T07:32:21.809Z,2538.24
2023-03-04T07:33:21.778Z,2480.64
2023-03-04T07:34:21.880Z,2547.2
2023-03-04T07:35:22.067Z,2496
2023-03-04T07:36:22.139Z,2713.6
2023-03-04T07:37:22.287Z,2670.08
2023-03-04T07:38:22.437Z,2700.8
2023-03-04T07:39:22.589Z,2800.64
2023-03-04T07:40:22.745Z,2905.6
2023-03-04T07:41:22.853Z,2744.32
2023-03-04T07:42:23.000Z,2746.88
2023-03-04T07:43:23.101Z,2938.88
2023-03-04T07:44:23.197Z,2759.68
2023-03-04T07:45:23.359Z,2780.16
2023-03-04T07:46:23.502Z,2880
2023-03-04T07:47:23.649Z,2877.44
2023-03-04T07:48:23.804Z,2813.44
2023-03-04T07:49:23.957Z,2775.04
2023-03-04T07:50:24.108Z,3112.96
2023-03-04T07:51:24.254Z,3548.16
2023-03-04T07:52:24.406Z,3443.2
2023-03-04T07:53:24.510Z,3522.56
2023-03-04T07:54:24.615Z,3814.4
2023-03-04T07:55:24.725Z,3676.16
2023-03-04T07:56:24.866Z,3911.68
2023-03-04T07:57:24.967Z,3642.88
2023-03-04T07:58:25.118Z,3586.56
2023-03-04T07:59:25.229Z,3745.28
2023-03-04T08:00:25.371Z,4216.32
2023-03-04T08:01:25.470Z,4052.48
2023-03-04T08:02:25.644Z,4270.08
2023-03-04T08:03:25.730Z,4085.76
2023-03-04T08:04:25.966Z,4039.68
2023-03-04T08:05:25.936Z,4075.52
2023-03-04T08:06:26.080Z,4305.92
2023-03-04T08:07:26.231Z,4490.24
2023-03-04T08:08:26.329Z,4236.8
2023-03-04T08:09:26.483Z,4065.28
2023-03-04T08:10:26.635Z,4126.72
2023-03-04T08:11:26.786Z,4285.44
2023-03-04T08:12:26.891Z,4119.04
2023-03-04T08:13:26.985Z,4019.2
2023-03-04T08:14:27.141Z,4392.96
2023-03-04T08:15:27.297Z,4833.28
2023-03-04T08:16:27.449Z,4531.2
2023-03-04T08:17:27.593Z,4375.04
2023-03-04T08:18:27.697Z,4485.12
2023-03-04T08:19:27.853Z,4848.64
2023-03-04T08:20:28.000Z,4600.32
2023-03-04T08:21:28.174Z,5002.24
2023-03-04T08:22:28.296Z,5104.64
2023-03-04T08:23:28.445Z,5360.64
2023-03-04T08:24:28.562Z,6108.16
2023-03-04T08:25:28.653Z,5975.04
2023-03-04T08:26:28.813Z,5944.32
2023-03-04T08:27:28.956Z,6461.44
2023-03-04T08:28:29.115Z,6645.76
2023-03-04T08:29:29.205Z,6778.88
2023-03-04T08:30:29.357Z,7357.44
2023-03-04T08:31:29.580Z,7910.4
2023-03-04T08:32:29.695Z,7818.24
2023-03-04T08:33:29.718Z,8913.92
2023-03-04T08:34:29.833Z,11642.88
2023-03-04T08:35:29.993Z,10731.52
2023-03-04T08:36:30.119Z,10255.359
2023-03-04T08:37:30.272Z,9292.8
2023-03-04T08:38:30.374Z,10398.72
2023-03-04T08:39:30.478Z,11397.12
2023-03-04T08:40:30.626Z,12257.279
2023-03-04T08:41:30.784Z,10741.76
2023-03-04T08:42:30.937Z,10199.04
2023-03-04T08:43:31.029Z,10081.279
2023-03-04T08:44:31.189Z,10460.16
2023-03-04T08:45:31.336Z,14735.359
2023-03-04T08:46:31.605Z,12636.16
2023-03-04T08:47:31.634Z,10567.68
2023-03-04T08:48:31.796Z,10618.88
2023-03-04T08:49:31.936Z,10731.52
2023-03-04T08:50:32.044Z,11315.2
2023-03-04T08:51:32.148Z,10470.399
2023-03-04T08:52:32.288Z,9907.2
2023-03-04T08:53:32.399Z,9297.92
2023-03-04T08:54:32.491Z,9927.68
2023-03-04T08:55:32.647Z,9236.479
2023-03-04T08:56:32.756Z,8396.8
2023-03-04T08:57:32.902Z,8586.24
2023-03-04T08:58:33.019Z,8089.6
2023-03-04T08:59:33.104Z,8535.04
2023-03-04T09:00:33.254Z,8683.52
2023-03-04T09:01:33.396Z,9072.64
2023-03-04T09:02:33.505Z,9589.76
2023-03-04T09:03:33.708Z,10240
2023-03-04T09:04:33.855Z,9359.359
2023-03-04T09:05:33.960Z,9825.279
2023-03-04T09:06:34.111Z,10680.319
2023-03-04T09:07:34.262Z,11591.68
2023-03-04T09:08:34.376Z,10163.2
2023-03-04T09:09:34.514Z,9405.439
2023-03-04T09:10:34.669Z,8775.68
2023-03-04T09:11:34.818Z,8222.72
2023-03-04T09:12:34.977Z,8033.28
2023-03-04T09:13:35.134Z,8652.8
2023-03-04T09:14:35.221Z,10598.399
2023-03-04T09:15:35.388Z,12830.72
2023-03-04T09:16:35.619Z,14346.239
2023-03-04T09:17:35.691Z,14540.8
2023-03-04T09:18:35.910Z,14571.52
2023-03-04T09:19:35.933Z,14643.199
2023-03-04T09:20:36.067Z,14417.92
2023-03-04T09:21:36.326Z,14346.239
2023-03-04T09:22:36.381Z,16281.6
2023-03-04T09:23:36.495Z,14325.76
2023-03-04T09:24:36.609Z,10772.479
2023-03-04T09:25:36.795Z,10475.52
2023-03-04T09:26:36.943Z,11397.12
2023-03-04T09:27:37.038Z,12390.399
2023-03-04T09:28:37.149Z,12748.8
2023-03-04T09:29:37.258Z,13373.439
2023-03-04T09:30:37.395Z,12574.72
2023-03-04T09:31:37.634Z,13189.12
2023-03-04T09:32:37.654Z,15964.159
2023-03-04T09:33:37.810Z,16926.72
2023-03-04T09:34:37.993Z,16312.319
2023-03-04T09:35:38.132Z,17766.4
2023-03-04T09:36:38.262Z,16629.76
2023-03-04T09:37:40.988Z,15769.6
2023-03-04T09:38:38.450Z,14888.96
2023-03-04T09:39:38.571Z,12636.16
2023-03-04T09:40:38.668Z,12718.08
2023-03-04T09:41:38.770Z,15319.04
2023-03-04T09:42:38.866Z,13731.84
2023-03-04T09:43:38.962Z,12533.76
2023-03-04T09:44:39.120Z,13557.76
2023-03-04T09:45:39.226Z,13557.76
2023-03-04T09:46:39.424Z,14254.08
2023-03-04T09:47:39.471Z,15144.96
2023-03-04T09:48:39.570Z,13557.76
2023-03-04T09:49:39.720Z,12298.239
2023-03-04T09:50:39.823Z,12646.399
2023-03-04T09:51:39.924Z,11120.64
2023-03-04T09:52:40.044Z,10649.6
2023-03-04T09:53:40.127Z,10091.52
2023-03-04T09:54:40.230Z,10152.96
2023-03-04T09:55:40.387Z,9978.88
2023-03-04T09:56:40.537Z,10444.8
2023-03-04T09:57:40.688Z,12093.439
2023-03-04T09:58:40.836Z,11960.319
2023-03-04T09:59:40.943Z,12892.16
2023-03-04T10:00:41.198Z,15134.72
2023-03-04T10:01:41.190Z,14704.64
2023-03-04T10:02:41.342Z,12093.439
2023-03-04T10:03:41.519Z,11960.319
2023-03-04T10:04:41.742Z,12728.319
2023-03-04T10:05:41.694Z,12800
2023-03-04T10:06:41.840Z,13486.08
2023-03-04T10:07:41.904Z,14295.04
2023-03-04T10:08:42.000Z,13598.72
2023-03-04T10:09:42.147Z,14766.08
2023-03-04T10:10:42.298Z,13598.72
2023-03-04T10:11:42.352Z,11714.56
2023-03-04T10:12:42.455Z,11683.84
2023-03-04T10:13:42.558Z,12093.439
2023-03-04T10:14:42.660Z,11008
2023-03-04T10:15:42.819Z,10833.92
2023-03-04T10:16:42.914Z,11991.04
2023-03-04T10:17:43.076Z,11878.399
2023-03-04T10:18:43.168Z,11202.56
2023-03-04T10:19:43.261Z,12175.359
2023-03-04T10:20:43.368Z,13946.88
2023-03-04T10:21:43.491Z,14673.92
2023-03-04T10:22:43.622Z,13066.239
2023-03-04T10:23:43.767Z,12933.12
2023-03-04T10:24:43.869Z,13496.319
2023-03-04T10:25:44.031Z,15104
2023-03-04T10:26:44.125Z,14653.439
2023-03-04T10:27:44.234Z,15636.479
2023-03-04T10:28:44.371Z,16230.399
2023-03-04T10:29:44.523Z,15595.52
2023-03-04T10:30:44.673Z,12390.399
2023-03-04T10:31:44.798Z,11980.8
2023-03-04T10:32:44.873Z,12748.8
2023-03-04T10:33:44.975Z,12718.08
2023-03-04T10:34:45.073Z,11960.319
2023-03-04T10:35:45.252Z,11786.239
2023-03-04T10:36:45.285Z,13588.479
2023-03-04T10:37:45.380Z,14233.6
2023-03-04T10:38:45.531Z,14704.64
2023-03-04T10:39:45.636Z,14387.199
2023-03-04T10:40:46.047Z,14346.239
2023-03-04T10:41:46.020Z,12554.239
2023-03-04T10:42:46.122Z,13035.52
2023-03-04T10:43:46.234Z,11694.08
2023-03-04T10:44:46.338Z,13230.08
2023-03-04T10:45:46.471Z,15994.88
2023-03-04T10:46:46.593Z,12881.92
2023-03-04T10:47:46.712Z,12666.88
2023-03-04T10:48:46.840Z,13701.12
2023-03-04T10:49:46.959Z,14192.64
2023-03-04T10:50:47.092Z,11499.52
2023-03-04T10:51:47.197Z,12666.88
2023-03-04T10:52:47.350Z,12052.479
2023-03-04T10:53:47.495Z,12369.92
2023-03-04T10:54:47.610Z,11960.319
2023-03-04T10:55:47.765Z,12421.12
2023-03-04T10:56:48.302Z,11919.359
2023-03-04T10:57:48.053Z,12277.76
2023-03-04T10:58:48.149Z,11960.319
2023-03-04T10:59:48.256Z,13834.239
2023-03-04T11:00:48.395Z,12584.96
2023-03-04T11:01:48.501Z,11663.359
2023-03-04T11:02:48.602Z,10772.479
2023-03-04T11:03:48.789Z,10598.399
2023-03-04T11:04:48.859Z,10414.08
2023-03-04T11:05:49.008Z,9958.399
2023-03-04T11:06:49.157Z,9600
2023-03-04T11:07:55.448Z,9374.72
2023-03-04T11:08:49.409Z,9774.08
2023-03-04T11:09:49.568Z,10485.76
2023-03-04T11:10:49.717Z,10567.68
2023-03-04T11:11:49.867Z,10752
2023-03-04T11:12:50.027Z,10014.72
2023-03-04T11:13:50.121Z,10316.8
2023-03-04T11:14:50.273Z,10690.56
2023-03-04T11:15:50.372Z,10449.92
2023-03-04T11:16:50.498Z,9902.08
2023-03-04T11:17:50.576Z,9559.04
2023-03-04T11:18:50.735Z,8913.92
2023-03-04T11:19:50.832Z,8663.04
2023-03-04T11:20:50.933Z,8878.08
2023-03-04T11:21:51.074Z,8862.72
2023-03-04T11:22:51.181Z,7961.6
2023-03-04T11:23:51.282Z,8012.8
2023-03-04T11:24:51.386Z,8048.64
2023-03-04T11:25:51.485Z,8801.28
2023-03-04T11:26:51.595Z,9953.279
2023-03-04T11:27:51.738Z,10567.68
2023-03-04T11:28:51.888Z,10030.08
2023-03-04T11:29:51.995Z,10332.16
2023-03-04T11:30:52.139Z,9651.2
2023-03-04T11:31:52.489Z,11325.439
2023-03-04T11:32:52.425Z,12472.319
2023-03-04T11:33:52.556Z,11458.56
2023-03-04T11:34:52.695Z,11827.2
2023-03-04T11:35:52.852Z,12380.16
2023-03-04T11:36:52.954Z,11130.88
2023-03-04T11:37:53.064Z,10956.8
2023-03-04T11:38:53.158Z,11141.12
2023-03-04T11:39:53.319Z,11417.6
2023-03-04T11:40:53.471Z,10245.12
2023-03-04T11:41:53.621Z,10670.08
2023-03-04T11:42:53.728Z,12380.16
2023-03-04T11:43:53.892Z,11827.2
2023-03-04T11:44:54.029Z,10721.279
2023-03-04T11:45:54.224Z,10321.92
2023-03-04T11:46:54.299Z,11581.439
2023-03-04T11:47:54.388Z,12390.399
2023-03-04T11:48:54.490Z,12032
2023-03-04T11:49:54.594Z,11540.479
2023-03-04T11:50:54.699Z,12492.8
2023-03-04T11:51:54.848Z,12738.56
2023-03-04T11:52:55.010Z,12482.56
2023-03-04T11:53:55.152Z,10419.2
2023-03-04T11:54:55.313Z,9308.16
2023-03-04T11:55:55.462Z,10040.319
2023-03-04T11:56:55.606Z,10096.64
2023-03-04T11:57:55.757Z,10004.479
2023-03-04T11:58:55.877Z,9600
2023-03-04T11:59:56.009Z,9323.52
2023-03-04T12:00:56.116Z,10009.6
2023-03-04T12:01:56.220Z,9589.76
2023-03-04T12:02:56.317Z,9589.76
2023-03-04T12:03:56.623Z,9246.72
2023-03-04T12:04:56.584Z,8837.12
2023-03-04T12:05:56.714Z,8990.72
2023-03-04T12:06:56.822Z,8427.52
2023-03-04T12:07:56.970Z,7792.64
2023-03-04T12:08:57.131Z,8376.32
2023-03-04T12:09:57.266Z,7731.2
2023-03-04T12:10:57.425Z,7270.4
2023-03-04T12:11:57.552Z,6891.52
2023-03-04T12:12:57.684Z,6394.88
2023-03-04T12:13:57.826Z,6814.72
2023-03-04T12:14:57.926Z,7628.8
2023-03-04T12:15:58.066Z,6906.88
2023-03-04T12:16:58.133Z,6860.8
2023-03-04T12:17:58.235Z,7162.88
2023-03-04T12:18:58.330Z,7024.64
2023-03-04T12:19:58.494Z,6871.04
2023-03-04T12:20:58.649Z,7137.28
2023-03-04T12:21:58.804Z,7383.04
2023-03-04T12:22:58.890Z,6717.44
2023-03-04T12:23:59.040Z,5770.24
2023-03-04T12:24:59.141Z,6318.08
2023-03-04T12:25:59.297Z,6128.64
2023-03-04T12:26:59.444Z,6553.6
2023-03-04T12:27:59.600Z,6768.64
2023-03-04T12:28:59.697Z,6384.64
2023-03-04T12:29:59.807Z,6435.84
2023-03-04T12:30:59.981Z,5514.24
2023-03-04T12:32:00.095Z,5396.48
2023-03-04T12:33:00.152Z,6302.72
2023-03-04T12:34:00.318Z,5688.32
2023-03-04T12:35:00.459Z,4979.2
2023-03-04T12:36:00.630Z,5360.64
2023-03-04T12:37:00.661Z,6343.68
2023-03-04T12:38:00.763Z,7065.6